Time;durP1;ratioP1;P1;durP2;ratioP2;P2;SDS_P1;SDS_P2;PMS_P1;PMS_P2;Temp;Humidity;BMP_temperature;BMP_pressure;BME280_temperature;BME280_humidity;BME280_pressure;Samples;Min_cycle;Max_cycle;Signal;HPM_P1;HPM_P2
2021/10/04 00:00:13;;;;;;;3.57;3.27;;;;;;;;;;5092491;28;20579;-79
2021/10/04 00:02:41;;;;;;;3.20;3.00;;;;;;;;;;5092552;28;20193;-80
2021/10/04 00:05:09;;;;;;;4.90;3.33;;;;;;;;;;5092123;28;20284;-79
2021/10/04 00:07:37;;;;;;;3.73;3.10;;;;;;;;;;5092677;28;20221;-80
2021/10/04 00:10:04;;;;;;;3.40;2.80;;;;;;;;;;5092278;28;20202;-79
2021/10/04 00:12:32;;;;;;;4.60;2.90;;;;;;;;;;5092179;28;20203;-80
2021/10/04 00:15:00;;;;;;;4.23;2.93;;;;;;;;;;5091862;28;20206;-79
2021/10/04 00:17:28;;;;;;;4.03;3.17;;;;;;;;;;5092172;28;20200;-79
2021/10/04 00:19:55;;;;;;;3.20;3.00;;;;;;;;;;5092073;28;20200;-79
2021/10/04 00:22:22;;;;;;;3.40;3.03;;;;;;;;;;5092115;28;20669;-79
2021/10/04 00:24:49;;;;;;;6.13;3.57;;;;;;;;;;5092240;28;20196;-80
2021/10/04 00:27:16;;;;;;;3.50;3.07;;;;;;;;;;5092219;28;20228;-80
2021/10/04 00:29:43;;;;;;;3.87;2.80;;;;;;;;;;5091717;28;20671;-80
2021/10/04 00:32:12;;;;;;;6.13;3.07;;;;;;;;;;5092042;28;20586;-80
2021/10/04 00:34:39;;;;;;;3.20;2.90;;;;;;;;;;5091889;28;20683;-79
2021/10/04 00:37:07;;;;;;;4.53;2.90;;;;;;;;;;5092126;28;20309;-79
2021/10/04 00:39:35;;;;;;;3.57;3.23;;;;;;;;;;5091870;28;20192;-80
2021/10/04 00:42:03;;;;;;;4.90;3.10;;;;;;;;;;5091812;28;20192;-79
2021/10/04 00:44:30;;;;;;;7.33;3.93;;;;;;;;;;5091893;28;20195;-79
2021/10/04 00:46:57;;;;;;;3.67;2.73;;;;;;;;;;5091994;28;20615;-79
2021/10/04 00:49:26;;;;;;;3.50;3.20;;;;;;;;;;5091639;28;20311;-79
2021/10/04 00:51:53;;;;;;;4.77;3.30;;;;;;;;;;5092342;28;20200;-79
2021/10/04 00:54:20;;;;;;;7.63;3.90;;;;;;;;;;5091270;28;20210;-80
2021/10/04 00:56:47;;;;;;;4.27;2.90;;;;;;;;;;5091873;28;20211;-80
2021/10/04 00:59:14;;;;;;;5.87;3.87;;;;;;;;;;5091732;28;20688;-80
2021/10/04 01:01:42;;;;;;;2.93;2.60;;;;;;;;;;5091591;28;20206;-79
2021/10/04 01:04:09;;;;;;;3.57;3.27;;;;;;;;;;5091579;28;20200;-79
2021/10/04 01:06:38;;;;;;;3.63;3.27;;;;;;;;;;5091760;28;20200;-80
2021/10/04 01:09:05;;;;;;;3.57;2.63;;;;;;;;;;5091575;28;20227;-79
2021/10/04 01:11:33;;;;;;;6.67;4.87;;;;;;;;;;5092025;28;20275;-80
2021/10/04 01:14:00;;;;;;;5.70;4.20;;;;;;;;;;5091883;28;20196;-79
2021/10/04 01:16:27;;;;;;;7.47;5.10;;;;;;;;;;5091455;28;20690;-80
2021/10/04 01:18:54;;;;;;;5.77;4.53;;;;;;;;;;5091950;28;20600;-79
2021/10/04 01:21:23;;;;;;;4.47;3.67;;;;;;;;;;5091429;28;20661;-80
2021/10/04 01:23:50;;;;;;;7.03;4.23;;;;;;;;;;5091269;28;20664;-80
2021/10/04 01:26:18;;;;;;;4.87;3.87;;;;;;;;;;5093667;28;20207;-79
2021/10/04 01:28:45;;;;;;;3.73;3.37;;;;;;;;;;5095460;28;20220;-79
2021/10/04 01:31:12;;;;;;;5.37;4.30;;;;;;;;;;5095350;28;20197;-79
2021/10/04 01:33:39;;;;;;;8.67;6.67;;;;;;;;;;5095346;28;20196;-80
2021/10/04 01:36:06;;;;;;;11.43;8.87;;;;;;;;;;5094873;28;20691;-80
2021/10/04 01:38:35;;;;;;;9.27;7.33;;;;;;;;;;5095268;28;20200;-80
2021/10/04 01:41:02;;;;;;;7.53;6.83;;;;;;;;;;5095179;28;20211;-80
2021/10/04 01:43:29;;;;;;;6.43;5.30;;;;;;;;;;5095228;28;20320;-80
2021/10/04 01:45:57;;;;;;;7.53;5.63;;;;;;;;;;5094897;28;20229;-80
2021/10/04 01:48:24;;;;;;;5.23;4.80;;;;;;;;;;5094785;28;20216;-79
2021/10/04 01:50:52;;;;;;;6.53;4.60;;;;;;;;;;5094965;28;20196;-80
2021/10/04 01:53:19;;;;;;;4.43;4.00;;;;;;;;;;5093988;28;20207;-79
2021/10/04 01:55:48;;;;;;;3.97;3.37;;;;;;;;;;5093254;28;20209;-79
2021/10/04 01:58:15;;;;;;;3.70;3.07;;;;;;;;;;5094641;28;20196;-80
2021/10/04 02:00:43;;;;;;;3.83;3.53;;;;;;;;;;5094822;28;20204;-80
2021/10/04 02:03:11;;;;;;;5.27;3.60;;;;;;;;;;5095091;28;20201;-80
2021/10/04 02:05:38;;;;;;;5.90;4.17;;;;;;;;;;5094767;28;20192;-80
2021/10/04 02:08:06;;;;;;;4.70;3.60;;;;;;;;;;5094770;28;20306;-80
2021/10/04 02:10:36;;;;;;;4.57;3.77;;;;;;;;;;5094920;28;20196;-81
2021/10/04 02:13:05;;;;;;;4.10;3.70;;;;;;;;;;5094646;28;20257;-80
2021/10/04 02:15:33;;;;;;;4.43;3.87;;;;;;;;;;5094418;28;20639;-80
2021/10/04 02:18:01;;;;;;;3.73;3.40;;;;;;;;;;5094307;28;20196;-80
2021/10/04 02:20:31;;;;;;;4.60;3.80;;;;;;;;;;5094309;28;20204;-80
2021/10/04 02:23:05;;;;;;;5.03;4.00;;;;;;;;;;5094572;28;20197;-80
2021/10/04 02:25:33;;;;;;;4.40;4.00;;;;;;;;;;5094380;28;20198;-80
2021/10/04 02:28:00;;;;;;;5.67;5.13;;;;;;;;;;5094326;28;20224;-79
2021/10/04 02:30:29;;;;;;;4.73;4.33;;;;;;;;;;5094456;28;20197;-80
2021/10/04 02:32:56;;;;;;;3.90;3.50;;;;;;;;;;5094260;28;20207;-79
2021/10/04 02:35:24;;;;;;;3.97;3.67;;;;;;;;;;5094284;28;20193;-79
2021/10/04 02:37:52;;;;;;;5.27;4.13;;;;;;;;;;5093858;28;20193;-80
2021/10/04 02:40:20;;;;;;;5.10;3.23;;;;;;;;;;5094064;28;20204;-80
2021/10/04 02:42:48;;;;;;;5.20;3.53;;;;;;;;;;5094102;28;20236;-80
2021/10/04 02:45:17;;;;;;;5.80;3.50;;;;;;;;;;5093733;28;20684;-80
2021/10/04 02:47:48;;;;;;;3.73;3.37;;;;;;;;;;5094256;28;20200;-80
2021/10/04 02:50:18;;;;;;;4.80;3.33;;;;;;;;;;5093902;28;20287;-79
2021/10/04 02:52:45;;;;;;;4.03;3.63;;;;;;;;;;5093861;28;20201;-80
2021/10/04 02:55:12;;;;;;;4.13;3.37;;;;;;;;;;5093738;28;20192;-79
2021/10/04 02:57:40;;;;;;;5.97;3.83;;;;;;;;;;5093609;28;20617;-79
2021/10/04 03:00:09;;;;;;;5.70;3.90;;;;;;;;;;5093947;28;20211;-79
2021/10/04 03:02:37;;;;;;;4.57;3.80;;;;;;;;;;5094102;28;20200;-79
2021/10/04 03:05:06;;;;;;;4.27;3.97;;;;;;;;;;5093227;28;20730;-79
2021/10/04 03:07:34;;;;;;;6.27;4.40;;;;;;;;;;5093593;28;20387;-79
2021/10/04 03:10:01;;;;;;;5.50;3.97;;;;;;;;;;5093230;28;20220;-79
2021/10/04 03:12:28;;;;;;;95.77;51.30;;;;;;;;;;5093290;28;20202;-79
2021/10/04 03:14:55;;;;;;;20.03;15.33;;;;;;;;;;5093575;28;20192;-79
2021/10/04 03:17:22;;;;;;;14.10;12.07;;;;;;;;;;5093641;28;20581;-79
2021/10/04 03:19:49;;;;;;;10.70;8.97;;;;;;;;;;5093478;28;20555;-79
2021/10/04 03:22:18;;;;;;;8.37;6.83;;;;;;;;;;5093723;28;20203;-80
2021/10/04 03:24:45;;;;;;;6.63;6.03;;;;;;;;;;5093110;28;20192;-80
2021/10/04 03:27:13;;;;;;;5.33;4.83;;;;;;;;;;5093099;28;20205;-80
2021/10/04 03:29:40;;;;;;;6.57;3.87;;;;;;;;;;5092849;28;20220;-79
2021/10/04 03:32:08;;;;;;;7.10;5.13;;;;;;;;;;5093537;28;20192;-80
2021/10/04 03:34:35;;;;;;;4.33;3.93;;;;;;;;;;5092734;28;20196;-79
2021/10/04 03:37:03;;;;;;;6.40;5.17;;;;;;;;;;5093043;28;20200;-80
2021/10/04 03:39:31;;;;;;;5.53;4.70;;;;;;;;;;5092745;28;20196;-80
2021/10/04 03:41:59;;;;;;;5.27;3.47;;;;;;;;;;5092877;28;20196;-80
2021/10/04 03:44:26;;;;;;;5.23;4.20;;;;;;;;;;5092574;28;20231;-79
2021/10/04 03:46:53;;;;;;;3.77;3.47;;;;;;;;;;5093018;28;20196;-80
2021/10/04 03:49:20;;;;;;;3.97;3.20;;;;;;;;;;5091928;28;20226;-80
2021/10/04 03:51:47;;;;;;;4.67;4.27;;;;;;;;;;5092892;28;20577;-80
2021/10/04 03:54:15;;;;;;;7.67;6.97;;;;;;;;;;5092655;28;20210;-79
2021/10/04 03:56:43;;;;;;;6.60;5.80;;;;;;;;;;5092772;28;20553;-80
2021/10/04 03:59:11;;;;;;;6.03;5.53;;;;;;;;;;5092263;28;20205;-79
2021/10/04 04:01:38;;;;;;;5.87;4.73;;;;;;;;;;5092862;28;20572;-80
2021/10/04 04:04:05;;;;;;;5.50;4.87;;;;;;;;;;5092245;28;20206;-79
2021/10/04 04:06:33;;;;;;;5.33;4.43;;;;;;;;;;5092355;28;20200;-79
2021/10/04 04:09:00;;;;;;;4.37;3.80;;;;;;;;;;5092147;28;20807;-79
2021/10/04 04:11:27;;;;;;;4.70;4.27;;;;;;;;;;5092528;28;20196;-79
2021/10/04 04:13:56;;;;;;;4.73;3.87;;;;;;;;;;5092225;28;20581;-80
2021/10/04 04:16:23;;;;;;;5.10;4.40;;;;;;;;;;5092037;28;20664;-79
2021/10/04 04:18:50;;;;;;;5.53;3.23;;;;;;;;;;5092424;28;20224;-79
2021/10/04 04:21:17;;;;;;;5.17;3.30;;;;;;;;;;5092539;28;20200;-79
2021/10/04 04:23:44;;;;;;;3.87;3.57;;;;;;;;;;5090869;28;20200;-80
2021/10/04 04:26:12;;;;;;;7.70;4.33;;;;;;;;;;5090806;28;20360;-79
2021/10/04 04:28:39;;;;;;;6.57;5.07;;;;;;;;;;5091087;28;20224;-80
2021/10/04 04:31:10;;;;;;;8.40;5.13;;;;;;;;;;5091360;28;20665;-80
2021/10/04 04:33:38;;;;;;;8.70;4.77;;;;;;;;;;5091245;28;20212;-80
2021/10/04 04:36:05;;;;;;;5.10;4.00;;;;;;;;;;5090843;28;20199;-81
2021/10/04 04:38:33;;;;;;;4.60;4.17;;;;;;;;;;5090820;28;20196;-79
2021/10/04 04:41:00;;;;;;;4.23;3.83;;;;;;;;;;5090751;28;20211;-80
2021/10/04 04:43:27;;;;;;;5.80;3.80;;;;;;;;;;5090900;28;20235;-81
2021/10/04 04:45:54;;;;;;;12.03;5.80;;;;;;;;;;5086809;28;20559;-80
2021/10/04 04:48:23;;;;;;;5.27;3.60;;;;;;;;;;5091815;28;20561;-80
2021/10/04 04:50:51;;;;;;;8.60;7.80;;;;;;;;;;5091856;28;20612;-80
2021/10/04 04:53:18;;;;;;;13.43;12.13;;;;;;;;;;5072688;28;20219;-79
2021/10/04 04:55:45;;;;;;;8.77;7.87;;;;;;;;;;5089892;28;20211;-80
2021/10/04 04:58:12;;;;;;;8.17;6.63;;;;;;;;;;5080841;28;20201;-80
2021/10/04 05:00:40;;;;;;;8.43;6.20;;;;;;;;;;5075688;28;20204;-80
2021/10/04 05:03:08;;;;;;;6.80;5.17;;;;;;;;;;5084970;28;20212;-80
2021/10/04 05:05:36;;;;;;;5.37;4.97;;;;;;;;;;5078835;28;20200;-81
2021/10/04 05:08:04;;;;;;;5.60;4.57;;;;;;;;;;5096243;28;20206;-81
2021/10/04 05:10:32;;;;;;;9.63;5.13;;;;;;;;;;5084188;28;20228;-80
2021/10/04 05:12:59;;;;;;;4.27;3.87;;;;;;;;;;5075342;28;20197;-80
2021/10/04 05:15:27;;;;;;;5.07;4.07;;;;;;;;;;5075229;28;20193;-80
2021/10/04 05:17:54;;;;;;;6.23;4.73;;;;;;;;;;5075622;28;20204;-81
2021/10/04 05:20:21;;;;;;;5.57;4.83;;;;;;;;;;5075297;28;20203;-80
2021/10/04 05:22:50;;;;;;;5.57;4.27;;;;;;;;;;5075152;28;20201;-80
2021/10/04 05:25:17;;;;;;;6.63;4.93;;;;;;;;;;5075334;28;20624;-80
2021/10/04 05:27:44;;;;;;;6.77;5.43;;;;;;;;;;5075684;28;20201;-81
2021/10/04 05:30:12;;;;;;;13.60;6.17;;;;;;;;;;5074832;28;20708;-80
2021/10/04 05:32:40;;;;;;;8.70;5.10;;;;;;;;;;5074931;28;20189;-80
2021/10/04 05:35:08;;;;;;;7.40;6.70;;;;;;;;;;5075330;28;20673;-80
2021/10/04 05:37:35;;;;;;;11.30;6.97;;;;;;;;;;5075122;28;20193;-80
2021/10/04 05:40:05;;;;;;;14.33;6.87;;;;;;;;;;5075196;28;20215;-80
2021/10/04 05:42:33;;;;;;;14.23;5.70;;;;;;;;;;5074577;28;20229;-80
2021/10/04 05:45:00;;;;;;;12.50;8.60;;;;;;;;;;5077656;28;20743;-80
2021/10/04 05:47:27;;;;;;;13.70;5.80;;;;;;;;;;5083964;28;20661;-80
2021/10/04 05:49:54;;;;;;;10.93;7.47;;;;;;;;;;5094968;28;20224;-80
2021/10/04 05:52:22;;;;;;;15.47;7.43;;;;;;;;;;5095059;28;20198;-80
2021/10/04 05:54:49;;;;;;;9.67;6.70;;;;;;;;;;5094763;28;20197;-80
2021/10/04 05:57:17;;;;;;;11.97;6.00;;;;;;;;;;5094991;28;20196;-80
2021/10/04 05:59:45;;;;;;;7.20;5.50;;;;;;;;;;5094850;28;20192;-81
2021/10/04 06:02:12;;;;;;;12.17;5.77;;;;;;;;;;5094622;28;20200;-81
2021/10/04 06:04:39;;;;;;;11.63;6.17;;;;;;;;;;5095048;28;20573;-80
2021/10/04 06:07:06;;;;;;;7.60;5.37;;;;;;;;;;5089055;28;20208;-80
2021/10/04 06:09:33;;;;;;;11.93;5.50;;;;;;;;;;5094835;28;20232;-79
2021/10/04 06:12:00;;;;;;;13.30;6.53;;;;;;;;;;5094106;28;20398;-80
2021/10/04 06:14:29;;;;;;;9.33;4.90;;;;;;;;;;5094880;28;20665;-80
2021/10/04 06:16:56;;;;;;;7.37;4.37;;;;;;;;;;5094633;28;20696;-80
2021/10/04 06:19:24;;;;;;;8.17;4.50;;;;;;;;;;5094381;28;20196;-81
2021/10/04 06:21:51;;;;;;;7.33;4.27;;;;;;;;;;5094352;28;20466;-81
2021/10/04 06:24:18;;;;;;;6.07;3.90;;;;;;;;;;5094370;28;20200;-81
2021/10/04 06:26:45;;;;;;;5.50;3.87;;;;;;;;;;5094472;28;20201;-80
2021/10/04 06:29:13;;;;;;;5.53;3.90;;;;;;;;;;5094511;28;20598;-80
2021/10/04 06:31:42;;;;;;;5.13;3.60;;;;;;;;;;5094265;28;20203;-81
2021/10/04 06:34:09;;;;;;;6.53;3.37;;;;;;;;;;5094515;28;20192;-80
2021/10/04 06:36:36;;;;;;;6.83;3.90;;;;;;;;;;5094296;28;20197;-80
2021/10/04 06:39:03;;;;;;;7.77;3.60;;;;;;;;;;5093950;28;20285;-80
2021/10/04 06:41:30;;;;;;;7.27;3.50;;;;;;;;;;5094248;28;20196;-80
2021/10/04 06:43:58;;;;;;;5.33;3.70;;;;;;;;;;5092733;28;20228;-81
2021/10/04 06:46:25;;;;;;;4.90;3.80;;;;;;;;;;5092531;28;20571;-80
2021/10/04 06:48:53;;;;;;;7.23;3.63;;;;;;;;;;5093903;28;20673;-80
2021/10/04 06:51:20;;;;;;;6.37;4.13;;;;;;;;;;5094065;28;20203;-80
2021/10/04 06:53:48;;;;;;;5.63;3.77;;;;;;;;;;5094256;28;20278;-80
2021/10/04 06:56:15;;;;;;;3.97;3.33;;;;;;;;;;5093841;28;20196;-80
2021/10/04 06:58:42;;;;;;;5.87;4.43;;;;;;;;;;5093629;28;20610;-81
2021/10/04 07:01:09;;;;;;;7.07;3.63;;;;;;;;;;5093728;28;20576;-80
2021/10/04 07:03:36;;;;;;;4.90;3.33;;;;;;;;;;5093813;28;20203;-80
2021/10/04 07:06:05;;;;;;;5.77;4.40;;;;;;;;;;5093541;28;20200;-80
2021/10/04 07:08:32;;;;;;;4.70;4.03;;;;;;;;;;5093805;28;20203;-80
2021/10/04 07:10:59;;;;;;;4.43;3.50;;;;;;;;;;5093422;28;20787;-80
2021/10/04 07:13:26;;;;;;;4.07;3.60;;;;;;;;;;5093582;28;20199;-81
2021/10/04 07:15:54;;;;;;;5.97;3.33;;;;;;;;;;5093154;28;20610;-81
2021/10/04 07:18:21;;;;;;;4.27;3.60;;;;;;;;;;5093503;28;20203;-81
2021/10/04 07:20:49;;;;;;;5.20;3.60;;;;;;;;;;5093277;28;20199;-81
2021/10/04 07:23:18;;;;;;;4.30;3.43;;;;;;;;;;5092334;28;20234;-81
2021/10/04 07:25:45;;;;;;;6.57;4.00;;;;;;;;;;5093480;28;20196;-81
2021/10/04 07:28:12;;;;;;;4.50;4.10;;;;;;;;;;5093363;28;20200;-81
2021/10/04 07:30:40;;;;;;;6.10;5.17;;;;;;;;;;5093088;28;20223;-81
2021/10/04 07:33:10;;;;;;;8.57;5.13;;;;;;;;;;5093151;28;20206;-81
2021/10/04 07:35:37;;;;;;;6.17;4.40;;;;;;;;;;5092941;28;20282;-81
2021/10/04 07:38:04;;;;;;;7.70;4.80;;;;;;;;;;5093088;28;20707;-81
2021/10/04 07:40:33;;;;;;;5.17;4.43;;;;;;;;;;5093195;28;20206;-81
2021/10/04 07:43:00;;;;;;;7.93;4.93;;;;;;;;;;5092871;28;20713;-82
2021/10/04 07:45:31;;;;;;;5.10;4.60;;;;;;;;;;5092657;28;20567;-81
2021/10/04 07:47:58;;;;;;;5.63;4.83;;;;;;;;;;5093221;28;20223;-81
2021/10/04 07:50:25;;;;;;;6.60;5.13;;;;;;;;;;5093032;28;20309;-81
2021/10/04 07:52:52;;;;;;;5.10;4.60;;;;;;;;;;5093027;28;20206;-81
2021/10/04 07:55:22;;;;;;;4.47;4.07;;;;;;;;;;5092485;28;20200;-82
2021/10/04 07:57:50;;;;;;;6.60;4.13;;;;;;;;;;5092748;28;20194;-82
2021/10/04 08:00:19;;;;;;;6.33;4.20;;;;;;;;;;5092489;28;20192;-82
2021/10/04 08:02:46;;;;;;;4.47;4.07;;;;;;;;;;5092366;28;20231;-81
2021/10/04 08:05:15;;;;;;;5.93;4.27;;;;;;;;;;5092600;28;20659;-82
2021/10/04 08:07:42;;;;;;;5.37;4.77;;;;;;;;;;5092617;28;20290;-82
2021/10/04 08:10:10;;;;;;;8.17;4.50;;;;;;;;;;5092558;28;20246;-82
2021/10/04 08:12:38;;;;;;;4.63;4.23;;;;;;;;;;5092243;28;20742;-82
2021/10/04 08:15:07;;;;;;;5.93;4.73;;;;;;;;;;5092576;28;20298;-82
2021/10/04 08:17:35;;;;;;;6.30;4.60;;;;;;;;;;5092414;28;20210;-82
2021/10/04 08:20:03;;;;;;;7.90;4.97;;;;;;;;;;5092256;28;20195;-82
2021/10/04 08:22:32;;;;;;;5.17;4.00;;;;;;;;;;5092494;28;20203;-81
2021/10/04 08:24:59;;;;;;;4.13;3.73;;;;;;;;;;5091911;28;20257;-82
2021/10/04 08:27:27;;;;;;;4.93;4.50;;;;;;;;;;5092659;28;20192;-82
2021/10/04 08:29:54;;;;;;;6.60;3.70;;;;;;;;;;5092272;28;20220;-82
2021/10/04 08:32:23;;;;;;;9.00;4.27;;;;;;;;;;5091953;28;20197;-82
2021/10/04 08:34:50;;;;;;;5.20;3.70;;;;;;;;;;5091671;28;20712;-81
2021/10/04 08:37:17;;;;;;;5.90;4.20;;;;;;;;;;5092157;28;20207;-81
2021/10/04 08:39:44;;;;;;;6.10;4.07;;;;;;;;;;5091758;28;20200;-81
2021/10/04 08:42:11;;;;;;;4.10;3.70;;;;;;;;;;5091872;28;20612;-82
2021/10/04 08:44:40;;;;;;;4.57;4.17;;;;;;;;;;5091983;28;20180;-82
2021/10/04 08:47:09;;;;;;;6.43;4.00;;;;;;;;;;5092356;28;20579;-82
2021/10/04 08:49:37;;;;;;;5.63;3.77;;;;;;;;;;5086174;28;20204;-82
2021/10/04 08:52:05;;;;;;;9.87;4.70;;;;;;;;;;5091937;28;20196;-82
2021/10/04 08:54:32;;;;;;;5.30;3.83;;;;;;;;;;5091766;28;20202;-82
2021/10/04 08:56:59;;;;;;;6.30;5.73;;;;;;;;;;5091913;28;20196;-82
2021/10/04 08:59:26;;;;;;;5.27;3.40;;;;;;;;;;5091519;28;20196;-82
2021/10/04 09:02:24;;;;;;;5.90;3.90;;;;;;;;;;5091817;28;20295;-83
2021/10/04 09:05:14;;;;;;;4.63;3.83;;;;;;;;;;5091719;28;20196;-82
2021/10/04 09:07:42;;;;;;;4.80;4.27;;;;;;;;;;5091958;28;20653;-82
2021/10/04 09:10:11;;;;;;;7.00;4.10;;;;;;;;;;5091431;28;20224;-82
2021/10/04 09:12:49;;;;;;;5.60;3.40;;;;;;;;;;5091928;28;20196;-83
2021/10/04 09:15:25;;;;;;;4.50;3.73;;;;;;;;;;5091728;28;20184;-82
2021/10/04 09:17:53;;;;;;;4.90;3.77;;;;;;;;;;5091738;28;20690;-82
2021/10/04 09:20:22;;;;;;;3.53;3.30;;;;;;;;;;5091588;28;20192;-83
2021/10/04 09:22:49;;;;;;;5.77;3.60;;;;;;;;;;5091567;28;20196;-82
2021/10/04 09:25:16;;;;;;;5.03;4.03;;;;;;;;;;5091534;28;20205;-82
2021/10/04 09:27:45;;;;;;;4.40;4.00;;;;;;;;;;5091992;28;20203;-82
2021/10/04 09:30:15;;;;;;;4.07;3.77;;;;;;;;;;5091527;28;20250;-82
2021/10/04 09:32:44;;;;;;;6.33;4.07;;;;;;;;;;5091979;28;20235;-82
2021/10/04 09:35:24;;;;;;;6.30;3.80;;;;;;;;;;5091370;28;20200;-82
2021/10/04 09:37:53;;;;;;;4.17;3.40;;;;;;;;;;5091600;28;20662;-83
2021/10/04 09:40:42;;;;;;;5.37;3.60;;;;;;;;;;5091472;28;20203;-83
2021/10/04 09:43:10;;;;;;;4.90;4.40;;;;;;;;;;5086751;28;20231;-81
2021/10/04 09:45:37;;;;;;;4.17;3.50;;;;;;;;;;5091537;28;20196;-82
2021/10/04 09:48:13;;;;;;;6.70;3.93;;;;;;;;;;5095184;28;20227;-82
2021/10/04 09:50:42;;;;;;;6.87;3.90;;;;;;;;;;5095025;28;20223;-82
2021/10/04 09:53:13;;;;;;;5.70;4.27;;;;;;;;;;5095252;28;20196;-82
2021/10/04 09:55:41;;;;;;;9.53;5.13;;;;;;;;;;5094984;28;20204;-82
2021/10/04 09:58:14;;;;;;;4.60;4.20;;;;;;;;;;5095141;28;20196;-82
2021/10/04 10:00:47;;;;;;;11.83;4.63;;;;;;;;;;5094659;28;20181;-82
2021/10/04 10:03:17;;;;;;;5.03;4.57;;;;;;;;;;5095122;28;20203;-82
2021/10/04 10:05:49;;;;;;;5.37;4.87;;;;;;;;;;5094730;28;20236;-82
2021/10/04 10:08:17;;;;;;;12.77;4.33;;;;;;;;;;5095036;28;20196;-82
2021/10/04 10:10:46;;;;;;;6.63;5.00;;;;;;;;;;5094581;28;20309;-83
2021/10/04 10:13:15;;;;;;;5.10;4.70;;;;;;;;;;5094809;28;20207;-82
2021/10/04 10:15:46;;;;;;;5.10;4.40;;;;;;;;;;5094612;28;20673;-82
2021/10/04 10:18:19;;;;;;;6.10;4.50;;;;;;;;;;5094927;28;20197;-82
2021/10/04 10:20:54;;;;;;;9.37;4.97;;;;;;;;;;5094500;28;20188;-83
2021/10/04 10:23:42;;;;;;;5.10;4.27;;;;;;;;;;5095045;28;20271;-82
2021/10/04 10:26:36;;;;;;;7.07;4.90;;;;;;;;;;5094776;28;20184;-83
2021/10/04 10:29:30;;;;;;;7.97;4.17;;;;;;;;;;5094383;28;20185;-82
2021/10/04 10:32:18;;;;;;;7.13;3.90;;;;;;;;;;5069966;28;20224;-83
2021/10/04 10:34:56;;;;;;;6.03;4.80;;;;;;;;;;5094594;28;20185;-82
2021/10/04 10:37:27;;;;;;;4.60;4.20;;;;;;;;;;5094532;28;20574;-82
2021/10/04 10:39:56;;;;;;;8.73;4.17;;;;;;;;;;5094462;28;20195;-82
2021/10/04 10:42:26;;;;;;;4.30;3.67;;;;;;;;;;5094327;28;20251;-81
2021/10/04 10:45:26;;;;;;;4.93;4.13;;;;;;;;;;5094073;28;20189;-82
2021/10/04 10:48:00;;;;;;;6.17;3.93;;;;;;;;;;5093990;28;20189;-83
2021/10/04 10:50:44;;;;;;;4.67;4.37;;;;;;;;;;5094136;28;20656;-82
2021/10/04 10:53:17;;;;;;;5.87;3.97;;;;;;;;;;5094144;28;20645;-82
2021/10/04 10:55:46;;;;;;;5.17;4.63;;;;;;;;;;5094226;28;20188;-83
2021/10/04 10:58:15;;;;;;;4.67;4.27;;;;;;;;;;5093478;28;20196;-82
2021/10/04 11:00:44;;;;;;;8.63;4.57;;;;;;;;;;5093778;28;20196;-82
2021/10/04 11:03:14;;;;;;;7.23;4.10;;;;;;;;;;5094122;28;20582;-82
2021/10/04 11:05:52;;;;;;;5.43;4.20;;;;;;;;;;5093640;28;20208;-82
2021/10/04 11:08:23;;;;;;;6.03;4.50;;;;;;;;;;5093561;28;20221;-82
2021/10/04 11:11:15;;;;;;;4.63;4.23;;;;;;;;;;5093876;28;20277;-83
2021/10/04 11:13:43;;;;;;;4.80;4.33;;;;;;;;;;5093661;28;20220;-82
2021/10/04 11:16:29;;;;;;;9.47;3.80;;;;;;;;;;5093577;28;20204;-82
2021/10/04 11:18:57;;;;;;;5.80;4.27;;;;;;;;;;5093337;28;20196;-82
2021/10/04 11:21:26;;;;;;;4.90;4.40;;;;;;;;;;5093528;28;20204;-82
2021/10/04 11:23:57;;;;;;;7.33;4.40;;;;;;;;;;5093306;28;20217;-82
2021/10/04 11:26:24;;;;;;;4.17;3.60;;;;;;;;;;5093761;28;20189;-83
2021/10/04 11:28:53;;;;;;;3.90;3.20;;;;;;;;;;5093152;28;20664;-83
2021/10/04 11:31:22;;;;;;;5.07;3.67;;;;;;;;;;5093552;28;20655;-83
2021/10/04 11:33:51;;;;;;;4.80;4.30;;;;;;;;;;5093162;28;20682;-82
2021/10/04 11:36:20;;;;;;;4.87;4.47;;;;;;;;;;5092892;28;20196;-83
2021/10/04 11:38:49;;;;;;;3.60;3.30;;;;;;;;;;5093121;28;20206;-82
2021/10/04 11:41:24;;;;;;;8.10;4.93;;;;;;;;;;5093063;28;20200;-83
2021/10/04 11:43:53;;;;;;;6.50;3.40;;;;;;;;;;5092973;28;20231;-82
2021/10/04 11:46:22;;;;;;;7.47;3.80;;;;;;;;;;5093063;28;20197;-82
2021/10/04 11:48:50;;;;;;;5.30;3.50;;;;;;;;;;5092894;28;20203;-83
2021/10/04 11:51:25;;;;;;;6.47;3.50;;;;;;;;;;5093027;28;20231;-82
2021/10/04 11:53:53;;;;;;;5.00;3.50;;;;;;;;;;5092822;28;20220;-82
2021/10/04 11:56:20;;;;;;;5.20;3.43;;;;;;;;;;5092772;28;20593;-82
2021/10/04 11:58:51;;;;;;;3.70;3.00;;;;;;;;;;5092746;28;20203;-82
2021/10/04 12:01:29;;;;;;;3.93;3.30;;;;;;;;;;5092680;28;20181;-83
2021/10/04 12:04:01;;;;;;;4.37;3.27;;;;;;;;;;5092933;28;20204;-82
2021/10/04 12:06:30;;;;;;;5.10;3.43;;;;;;;;;;5092383;28;20249;-83
2021/10/04 12:08:57;;;;;;;6.67;3.47;;;;;;;;;;5091899;28;20204;-83
2021/10/04 12:11:25;;;;;;;7.27;3.70;;;;;;;;;;5092765;28;20226;-83
2021/10/04 12:13:54;;;;;;;4.10;3.07;;;;;;;;;;5092694;28;20561;-83
2021/10/04 12:16:22;;;;;;;4.73;3.53;;;;;;;;;;5092308;28;20688;-83
2021/10/04 12:18:51;;;;;;;5.90;3.87;;;;;;;;;;5092293;28;20196;-82
2021/10/04 12:21:20;;;;;;;5.17;3.67;;;;;;;;;;5092343;28;20199;-83
2021/10/04 12:24:05;;;;;;;7.97;3.43;;;;;;;;;;5092313;28;20207;-83
2021/10/04 12:26:33;;;;;;;6.03;3.30;;;;;;;;;;5092164;28;20180;-83
2021/10/04 12:29:01;;;;;;;5.30;3.20;;;;;;;;;;5092157;28;20210;-82
2021/10/04 12:31:33;;;;;;;3.87;3.43;;;;;;;;;;5092606;28;20581;-83
2021/10/04 12:34:00;;;;;;;3.57;3.20;;;;;;;;;;5092486;28;20211;-82
2021/10/04 12:36:28;;;;;;;7.40;3.87;;;;;;;;;;5092264;28;20196;-83
2021/10/04 12:38:56;;;;;;;7.07;4.00;;;;;;;;;;5092395;28;20250;-82
2021/10/04 12:41:38;;;;;;;6.13;3.40;;;;;;;;;;5092290;28;20229;-82
2021/10/04 12:44:12;;;;;;;3.40;3.10;;;;;;;;;;5091925;28;20661;-83
2021/10/04 12:46:40;;;;;;;4.40;3.27;;;;;;;;;;5091849;28;20192;-83
2021/10/04 12:49:20;;;;;;;8.53;3.33;;;;;;;;;;5091885;28;20664;-82
2021/10/04 12:51:48;;;;;;;4.27;3.70;;;;;;;;;;5091969;28;20223;-83
2021/10/04 12:54:16;;;;;;;7.30;3.33;;;;;;;;;;5091835;28;20192;-83
2021/10/04 12:56:52;;;;;;;5.27;3.67;;;;;;;;;;5092076;28;20197;-83
2021/10/04 12:59:27;;;;;;;4.53;3.37;;;;;;;;;;5091937;28;20219;-83
2021/10/04 13:01:56;;;;;;;6.17;3.47;;;;;;;;;;5092351;28;20207;-83
2021/10/04 13:04:27;;;;;;;3.60;2.73;;;;;;;;;;5091586;28;20203;-83
2021/10/04 13:06:54;;;;;;;2.93;2.63;;;;;;;;;;5092215;28;20564;-83
2021/10/04 13:09:22;;;;;;;3.40;3.10;;;;;;;;;;5091700;28;20207;-83
2021/10/04 13:11:50;;;;;;;4.33;3.80;;;;;;;;;;5092110;28;20595;-83
2021/10/04 13:14:21;;;;;;;6.33;3.97;;;;;;;;;;5091671;28;20196;-83
2021/10/04 13:16:49;;;;;;;4.20;2.97;;;;;;;;;;5091910;28;20541;-83
2021/10/04 13:19:17;;;;;;;4.93;3.50;;;;;;;;;;5091947;28;20205;-83
2021/10/04 13:21:45;;;;;;;5.57;3.97;;;;;;;;;;5095133;28;20196;-83
2021/10/04 13:24:13;;;;;;;3.90;3.07;;;;;;;;;;5095995;28;20632;-83
2021/10/04 13:26:40;;;;;;;3.43;3.10;;;;;;;;;;5095926;28;20197;-83
2021/10/04 13:29:07;;;;;;;7.73;3.40;;;;;;;;;;5095520;28;20614;-82
2021/10/04 13:31:36;;;;;;;6.73;3.07;;;;;;;;;;5095882;28;20602;-83
2021/10/04 13:34:04;;;;;;;4.40;3.30;;;;;;;;;;5095727;28;20200;-82
2021/10/04 13:36:32;;;;;;;5.77;3.07;;;;;;;;;;5095686;28;20279;-82
2021/10/04 13:39:00;;;;;;;5.03;3.40;;;;;;;;;;5095264;28;20223;-82
2021/10/04 13:41:27;;;;;;;5.93;3.00;;;;;;;;;;5095476;28;20191;-83
2021/10/04 13:43:54;;;;;;;5.63;3.20;;;;;;;;;;5095127;28;20232;-83
2021/10/04 13:46:22;;;;;;;5.43;3.80;;;;;;;;;;5095354;28;20199;-83
2021/10/04 13:48:51;;;;;;;4.50;3.10;;;;;;;;;;5095276;28;20199;-83
2021/10/04 13:51:20;;;;;;;4.17;3.50;;;;;;;;;;5095402;28;20660;-83
2021/10/04 13:53:49;;;;;;;3.63;3.30;;;;;;;;;;5095452;28;20238;-82
2021/10/04 13:56:16;;;;;;;4.83;3.40;;;;;;;;;;5095448;28;20237;-83
2021/10/04 13:58:43;;;;;;;3.60;3.30;;;;;;;;;;5095183;28;20198;-82
2021/10/04 14:01:11;;;;;;;4.50;3.70;;;;;;;;;;5095111;28;20617;-82
2021/10/04 14:03:38;;;;;;;4.17;3.53;;;;;;;;;;5095009;28;20206;-82
2021/10/04 14:06:07;;;;;;;3.73;3.40;;;;;;;;;;5094843;28;20188;-82
2021/10/04 14:08:34;;;;;;;5.57;3.63;;;;;;;;;;5094677;28;20200;-82
2021/10/04 14:11:01;;;;;;;3.43;3.10;;;;;;;;;;5095050;28;20202;-82
2021/10/04 14:13:28;;;;;;;16.10;3.77;;;;;;;;;;5094780;28;20235;-82
2021/10/04 14:15:56;;;;;;;5.53;3.70;;;;;;;;;;5094926;28;20241;-82
2021/10/04 14:18:24;;;;;;;3.17;2.97;;;;;;;;;;5094194;28;20200;-82
2021/10/04 14:20:51;;;;;;;6.10;3.07;;;;;;;;;;5094570;28;20200;-82
2021/10/04 14:23:20;;;;;;;9.47;3.63;;;;;;;;;;5094619;28;20192;-82
2021/10/04 14:25:49;;;;;;;4.50;3.80;;;;;;;;;;5094487;28;20192;-82
2021/10/04 14:28:16;;;;;;;7.87;3.60;;;;;;;;;;5094356;28;20236;-82
2021/10/04 14:30:43;;;;;;;14.53;3.20;;;;;;;;;;5094317;28;20680;-82
2021/10/04 14:33:10;;;;;;;6.83;3.17;;;;;;;;;;5093779;28;20220;-82
2021/10/04 14:35:38;;;;;;;5.17;3.20;;;;;;;;;;5094169;28;20192;-82
2021/10/04 14:38:05;;;;;;;3.47;3.17;;;;;;;;;;5094711;28;20222;-82
2021/10/04 14:40:34;;;;;;;4.73;3.03;;;;;;;;;;5093950;28;20661;-82
2021/10/04 14:43:01;;;;;;;5.40;3.70;;;;;;;;;;5094378;28;20599;-82
2021/10/04 14:45:29;;;;;;;5.90;3.37;;;;;;;;;;5086052;28;20298;-82
2021/10/04 14:47:56;;;;;;;8.70;3.87;;;;;;;;;;5074182;28;20197;-82
2021/10/04 14:50:24;;;;;;;6.03;3.97;;;;;;;;;;5073734;28;20687;-82
2021/10/04 14:52:51;;;;;;;6.47;3.20;;;;;;;;;;5073290;28;20225;-81